This is the latest recevied weather packets stored in our database for station/object IZ2MHJ-3. If no packets are shown the sender has not sent any weather packets the latest 10 day(s).
| Time | Temp. | Humidity | Pressure | Rain* | Wind** | Luminosity | Snow |
|---|---|---|---|---|---|---|---|
| 1777362550 | 20.56° C | 55% | 1018.1 hPa | - | - | - | - |
| 1777361349 | 18.89° C | 60% | 1018.1 hPa | - | - | - | - |
| 1777360149 | 18.89° C | 58% | 1018 hPa | - | - | - | - |
| 1777358949 | 18.33° C | 58% | 1017.8 hPa | - | - | - | - |
| 1777357749 | 17.78° C | 60% | 1017.7 hPa | - | - | - | - |
| 1777356549 | 17.22° C | 63% | 1017.7 hPa | - | - | - | - |
| 1777355348 | 16.67° C | 68% | 1017.6 hPa | - | - | - | - |
| 1777354148 | 17.22° C | 71% | 1017.5 hPa | - | - | - | - |
| 1777352947 | 17.22° C | 71% | 1017.4 hPa | - | - | - | - |
| 1777351747 | 16.67° C | 72% | 1017.3 hPa | - | - | - | - |
| 1777350547 | 16.67° C | 71% | 1017.1 hPa | - | - | - | - |
| 1777349346 | 16.67° C | 72% | 1016.9 hPa | - | - | - | - |
| 1777348146 | 16.11° C | 74% | 1017 hPa | - | - | - | - |
| 1777346946 | 17.22° C | 70% | 1016.8 hPa | - | - | - | - |
| 1777345746 | 17.22° C | 70% | 1017 hPa | - | - | - | - |
| 1777344546 | 17.22° C | 70% | 1017 hPa | - | - | - | - |
| 1777343345 | 17.78° C | 67% | 1017 hPa | - | - | - | - |
| 1777342144 | 18.33° C | 66% | 1017.1 hPa | - | - | - | - |
| 1777340944 | 17.78° C | 67% | 1017.1 hPa | - | - | - | - |
| 1777339744 | 18.33° C | 63% | 1017.2 hPa | - | - | - | - |
| 1777338544 | 18.33° C | 63% | 1017.3 hPa | - | - | - | - |
| 1777337343 | 18.89° C | 62% | 1017.2 hPa | - | - | - | - |
| 1777336143 | 18.89° C | 61% | 1017.4 hPa | - | - | - | - |
| 1777334943 | 18.89° C | 61% | 1017.6 hPa | - | - | - | - |
| 1777333742 | 18.89° C | 60% | 1017.7 hPa | - | - | - | - |
* Rain since midnight (hover to see other rain measurements)
** Current wind speed in m/s (hover to see current wind gust speed)